Lockland, Ohio
Current Conditions -  °F | °C
As of 6:53 PM on Friday 28 Nov 2014 (Local Time) from KHAO Reporting Station
Clear Clear  
Wind Chill: 29°   Ceiling: Unl
Heat Index: 34°   Visibility: 10mi
Dew Point: 17°   Wind: 6mph
Humidity: 50%   Direction: NA
Pressure: 30.18"   Gusts: NA
Location:  39.236°N, 84.4599°W
Report Text: KHAO 282353Z AUTO VRB05KT 10SM CLR 01/M08 A3018 RMK AO2 SLP226 T00111083 10028 20011 56019
Loading
Personal Weather Stations






























Interactive Weather Map New forecast layout! Learn more

10-Day Weather Forecast

Advertisements
Track Severe Weather on mobile